createdAt,value
2022-08-26T00:00:16.276Z,41.87
2022-08-26T00:01:19.129Z,42.02
2022-08-26T00:02:30.806Z,42.33
2022-08-26T00:03:32.585Z,42.42
2022-08-26T00:04:34.568Z,41.41
2022-08-26T00:05:36.346Z,42.01
2022-08-26T00:06:42.659Z,41.90
2022-08-26T00:07:48.154Z,42.43
2022-08-26T00:08:50.484Z,42.07
2022-08-26T00:09:54.522Z,41.76
2022-08-26T00:10:57.190Z,42.25
2022-08-26T00:12:01.715Z,41.96
2022-08-26T00:13:04.608Z,42.48
2022-08-26T00:14:06.762Z,41.98
2022-08-26T00:15:11.839Z,42.17
2022-08-26T00:16:14.398Z,42.28
2022-08-26T00:17:16.280Z,42.53
2022-08-26T00:18:22.250Z,42.22
2022-08-26T00:19:24.391Z,42.46
2022-08-26T00:20:29.255Z,42.08
2022-08-26T00:21:31.042Z,42.29
2022-08-26T00:22:33.044Z,41.92
2022-08-26T00:23:35.157Z,42.14
2022-08-26T00:24:36.908Z,42.44
2022-08-26T00:25:42.494Z,42.66
2022-08-26T00:26:44.764Z,42.35
2022-08-26T00:27:47.962Z,42.59
2022-08-26T00:28:50.188Z,42.23
2022-08-26T00:29:51.952Z,42.90
2022-08-26T00:30:55.279Z,42.15
2022-08-26T00:31:57.715Z,41.96
2022-08-26T00:32:59.515Z,42.58
2022-08-26T00:34:01.222Z,41.88
2022-08-26T00:35:03.800Z,42.00
2022-08-26T00:36:07.592Z,41.82
2022-08-26T00:37:13.407Z,41.73
2022-08-26T00:38:17.559Z,42.08
2022-08-26T00:39:20.366Z,42.44
2022-08-26T00:40:31.119Z,42.23
2022-08-26T00:41:34.282Z,41.93
2022-08-26T00:42:36.223Z,42.13
2022-08-26T00:43:47.239Z,42.39
2022-08-26T00:44:49.918Z,41.67
2022-08-26T00:46:07.473Z,41.67
2022-08-26T00:47:21.838Z,41.87
2022-08-26T00:48:27.978Z,41.92
2022-08-26T00:49:40.842Z,41.96
2022-08-26T00:50:53.417Z,42.19
2022-08-26T00:51:57.056Z,41.83
2022-08-26T00:53:01.764Z,42.29
2022-08-26T00:54:08.024Z,42.50
2022-08-26T00:55:24.555Z,41.78
2022-08-26T00:56:42.238Z,41.84
2022-08-26T00:57:45.142Z,42.13
2022-08-26T00:58:48.192Z,41.91
2022-08-26T00:59:55.315Z,42.19
2022-08-26T01:00:57.148Z,42.26
2022-08-26T01:01:59.168Z,42.20
2022-08-26T01:03:02.697Z,42.28
2022-08-26T01:04:08.153Z,42.68
2022-08-26T01:05:11.828Z,42.28
2022-08-26T01:06:14.555Z,42.66
2022-08-26T01:07:16.512Z,42.54
2022-08-26T01:08:18.391Z,42.74
2022-08-26T01:09:22.295Z,42.39
2022-08-26T01:10:31.366Z,42.35
2022-08-26T01:11:33.431Z,42.32
2022-08-26T01:12:42.612Z,42.57
2022-08-26T01:13:44.621Z,42.46
2022-08-26T01:14:47.849Z,42.42
2022-08-26T01:15:56.960Z,43.00
2022-08-26T01:16:59.402Z,42.48
2022-08-26T01:18:05.498Z,42.77
2022-08-26T01:19:18.949Z,42.33
2022-08-26T01:21:00.014Z,42.52
2022-08-26T01:22:21.007Z,43.00
2022-08-26T01:23:24.140Z,43.76
2022-08-26T01:24:29.251Z,43.14
2022-08-26T01:25:35.078Z,43.37
2022-08-26T01:26:41.637Z,43.62
2022-08-26T01:27:43.991Z,43.29
2022-08-26T01:28:51.422Z,42.72
2022-08-26T01:29:53.828Z,43.72
2022-08-26T01:30:57.784Z,42.76
2022-08-26T01:31:59.737Z,42.41
2022-08-26T01:33:05.045Z,42.38
2022-08-26T01:34:16.788Z,42.71
2022-08-26T01:35:20.452Z,42.48
2022-08-26T01:36:23.247Z,42.92
2022-08-26T01:37:29.660Z,42.86
2022-08-26T01:38:31.673Z,42.83
2022-08-26T01:39:35.862Z,42.89
2022-08-26T01:40:40.088Z,42.67
2022-08-26T01:41:44.161Z,42.83
2022-08-26T01:42:46.907Z,42.97
2022-08-26T01:43:53.430Z,43.12
2022-08-26T01:44:59.745Z,43.20
2022-08-26T01:46:02.664Z,43.08
2022-08-26T01:47:06.439Z,43.06
2022-08-26T01:48:13.816Z,42.97
2022-08-26T01:49:16.686Z,42.61
2022-08-26T01:50:27.841Z,42.73
2022-08-26T01:51:37.338Z,43.24
2022-08-26T01:52:43.314Z,43.20
2022-08-26T01:53:46.080Z,43.16
2022-08-26T01:54:50.462Z,43.16
2022-08-26T01:55:57.590Z,42.76
2022-08-26T01:57:01.412Z,42.51
2022-08-26T01:58:08.202Z,42.82
2022-08-26T01:59:15.081Z,42.62
2022-08-26T02:00:16.901Z,42.39
2022-08-26T02:01:20.142Z,42.73
2022-08-26T02:02:22.519Z,42.77
2022-08-26T02:03:27.144Z,42.38
2022-08-26T02:04:40.563Z,42.72
2022-08-26T02:05:51.548Z,42.71
2022-08-26T02:06:54.218Z,42.38
2022-08-26T02:07:55.937Z,42.18
2022-08-26T02:09:02.197Z,41.86
2022-08-26T02:10:04.664Z,41.96
2022-08-26T02:11:07.385Z,41.77
2022-08-26T02:12:12.157Z,41.42
2022-08-26T02:13:14.010Z,41.28
2022-08-26T02:14:21.212Z,41.43
2022-08-26T02:15:23.095Z,41.77
2022-08-26T02:16:27.052Z,41.79
2022-08-26T02:17:42.370Z,41.47
2022-08-26T02:18:46.991Z,41.80
2022-08-26T02:19:50.686Z,41.64
2022-08-26T02:20:54.229Z,42.07
2022-08-26T02:21:58.943Z,41.98
2022-08-26T02:23:01.188Z,41.84
2022-08-26T02:24:12.412Z,41.76
2022-08-26T02:25:24.136Z,41.63
2022-08-26T02:26:26.924Z,41.77
2022-08-26T02:27:32.975Z,42.10
2022-08-26T02:29:09.870Z,41.86
2022-08-26T02:30:18.465Z,42.34
2022-08-26T02:31:20.274Z,42.40
2022-08-26T02:32:22.675Z,42.65
2022-08-26T02:33:25.053Z,42.57
2022-08-26T02:34:31.223Z,43.12
2022-08-26T02:35:35.557Z,42.83
2022-08-26T02:36:37.922Z,42.71
2022-08-26T02:37:42.017Z,42.57
2022-08-26T02:38:43.762Z,42.63
2022-08-26T02:39:48.103Z,43.01
2022-08-26T02:40:49.939Z,43.19
2022-08-26T02:41:52.861Z,42.98
2022-08-26T02:42:55.947Z,43.64
2022-08-26T02:43:59.219Z,43.65
2022-08-26T02:45:01.071Z,43.47
2022-08-26T02:46:02.860Z,43.29
2022-08-26T02:47:05.022Z,42.96
2022-08-26T02:48:14.751Z,43.37
2022-08-26T02:49:17.206Z,43.01
2022-08-26T02:50:19.816Z,43.26
2022-08-26T02:51:21.584Z,42.92
2022-08-26T02:52:23.913Z,42.92
2022-08-26T02:53:25.749Z,42.83
2022-08-26T02:54:27.961Z,42.57
2022-08-26T02:55:29.723Z,42.46
2022-08-26T02:56:33.485Z,42.47
2022-08-26T02:57:37.557Z,42.30
2022-08-26T02:58:39.583Z,42.77
2022-08-26T02:59:41.729Z,42.49
2022-08-26T03:00:53.545Z,42.46
2022-08-26T03:01:56.122Z,42.39
2022-08-26T03:02:59.168Z,42.58
2022-08-26T03:04:03.684Z,42.75
2022-08-26T03:05:06.560Z,42.58
2022-08-26T03:06:08.319Z,42.57
2022-08-26T03:07:10.361Z,42.65
2022-08-26T03:08:12.102Z,42.80
2022-08-26T03:09:18.861Z,42.52
2022-08-26T03:10:22.394Z,42.52
2022-08-26T03:11:24.809Z,42.42
2022-08-26T03:12:27.512Z,42.16
2022-08-26T03:13:29.777Z,42.48
2022-08-26T03:14:31.670Z,42.10
2022-08-26T03:15:33.522Z,42.85
2022-08-26T03:16:36.472Z,43.26
2022-08-26T03:17:38.990Z,43.01
2022-08-26T03:18:41.979Z,43.32
2022-08-26T03:19:43.763Z,43.39
2022-08-26T03:20:46.628Z,42.59
2022-08-26T03:21:48.624Z,43.00
2022-08-26T03:22:53.405Z,44.73
2022-08-26T03:23:58.752Z,46.28
2022-08-26T03:25:00.589Z,46.87
2022-08-26T03:26:02.957Z,47.87
2022-08-26T03:27:05.776Z,48.09
2022-08-26T03:28:09.682Z,46.72
2022-08-26T03:29:30.383Z,47.74
2022-08-26T03:30:45.328Z,47.00
2022-08-26T03:31:47.936Z,45.62
2022-08-26T03:32:49.750Z,44.78
2022-08-26T03:33:51.879Z,44.78
2022-08-26T03:34:54.122Z,44.09
2022-08-26T03:35:55.859Z,44.71
2022-08-26T03:36:59.020Z,44.29
2022-08-26T03:38:01.937Z,44.08
2022-08-26T03:39:03.886Z,44.03
2022-08-26T03:40:10.075Z,44.15
2022-08-26T03:41:12.401Z,44.24
2022-08-26T03:42:15.159Z,44.19
2022-08-26T03:43:17.807Z,44.67
2022-08-26T03:44:19.855Z,44.51
2022-08-26T03:45:22.012Z,44.37
2022-08-26T03:46:23.805Z,44.26
2022-08-26T03:47:28.613Z,45.70
2022-08-26T03:48:30.367Z,45.17
2022-08-26T03:49:32.393Z,44.54
2022-08-26T03:50:35.816Z,45.10
2022-08-26T03:51:39.031Z,43.71
2022-08-26T03:52:43.886Z,43.85
2022-08-26T03:53:47.851Z,44.73
2022-08-26T03:54:50.114Z,43.95
2022-08-26T03:55:52.178Z,44.03
2022-08-26T03:56:54.095Z,44.01
2022-08-26T03:57:55.954Z,44.60
2022-08-26T03:58:57.676Z,43.53
2022-08-26T04:00:00.294Z,44.68
2022-08-26T04:01:02.043Z,43.79
2022-08-26T04:02:08.458Z,44.49
2022-08-26T04:03:33.443Z,43.91
2022-08-26T04:04:35.524Z,44.93
2022-08-26T04:05:38.148Z,43.93
2022-08-26T04:06:43.430Z,45.00
2022-08-26T04:07:47.351Z,44.65
2022-08-26T04:08:50.360Z,43.75
2022-08-26T04:09:57.163Z,43.92
2022-08-26T04:10:59.244Z,44.10
2022-08-26T04:12:01.198Z,43.83
2022-08-26T04:13:05.206Z,44.10
2022-08-26T04:14:14.368Z,43.44
2022-08-26T04:15:20.021Z,43.57
2022-08-26T04:16:22.272Z,44.16
2022-08-26T04:17:26.334Z,43.16
2022-08-26T04:18:32.656Z,43.55
2022-08-26T04:19:38.987Z,43.38
2022-08-26T04:20:40.683Z,43.15
2022-08-26T04:21:43.491Z,43.86
2022-08-26T04:22:46.064Z,43.92
2022-08-26T04:23:48.577Z,43.57
2022-08-26T04:24:50.346Z,43.09
2022-08-26T04:25:52.190Z,43.38
2022-08-26T04:26:54.926Z,43.89
2022-08-26T04:27:56.975Z,43.15
2022-08-26T04:28:59.068Z,43.62
2022-08-26T04:30:01.286Z,43.81
2022-08-26T04:31:03.439Z,43.57
2022-08-26T04:32:05.253Z,43.16
2022-08-26T04:33:08.022Z,43.47
2022-08-26T04:34:15.770Z,43.47
2022-08-26T04:35:17.945Z,43.83
2022-08-26T04:36:20.335Z,45.40
2022-08-26T04:37:22.223Z,45.29
2022-08-26T04:38:26.587Z,45.60
2022-08-26T04:39:28.590Z,46.00
2022-08-26T04:40:30.761Z,46.24
2022-08-26T04:41:33.737Z,46.03
2022-08-26T04:42:36.092Z,45.89
2022-08-26T04:43:38.372Z,45.84
2022-08-26T04:44:40.670Z,46.29
2022-08-26T04:45:43.758Z,46.70
2022-08-26T04:46:45.530Z,46.83
2022-08-26T04:47:47.473Z,46.75
2022-08-26T04:48:52.458Z,45.38
2022-08-26T04:49:57.753Z,44.54
2022-08-26T04:51:00.129Z,44.75
2022-08-26T04:52:01.950Z,44.69
2022-08-26T04:53:04.611Z,45.25
2022-08-26T04:54:08.960Z,45.04
2022-08-26T04:55:10.690Z,45.23
2022-08-26T04:56:13.285Z,46.48
2022-08-26T04:57:15.156Z,44.34
2022-08-26T04:58:19.313Z,44.69
2022-08-26T04:59:21.641Z,44.19
2022-08-26T05:00:23.768Z,43.21
2022-08-26T05:01:30.007Z,43.51
2022-08-26T05:02:31.745Z,43.36
2022-08-26T05:03:36.456Z,43.09
2022-08-26T05:04:38.230Z,43.64
2022-08-26T05:05:45.865Z,43.63
2022-08-26T05:06:48.436Z,43.91
2022-08-26T05:07:50.181Z,44.32
2022-08-26T05:08:52.115Z,43.33
2022-08-26T05:09:54.811Z,43.62
2022-08-26T05:10:56.768Z,43.35
2022-08-26T05:11:58.469Z,43.74
2022-08-26T05:13:00.783Z,44.27
2022-08-26T05:14:02.581Z,44.09
2022-08-26T05:15:04.713Z,44.37
2022-08-26T05:16:12.489Z,44.17
2022-08-26T05:17:15.081Z,45.26
2022-08-26T05:18:20.570Z,45.39
2022-08-26T05:19:23.801Z,44.52
2022-08-26T05:20:26.319Z,43.95
2022-08-26T05:21:29.216Z,44.06
2022-08-26T05:22:31.014Z,44.36
2022-08-26T05:23:35.771Z,45.04
2022-08-26T05:24:37.459Z,44.51
2022-08-26T05:25:42.138Z,43.09
2022-08-26T05:26:44.961Z,43.50
2022-08-26T05:27:47.084Z,43.43
2022-08-26T05:28:51.673Z,43.03
2022-08-26T05:29:57.641Z,43.42
2022-08-26T05:30:59.394Z,43.14
2022-08-26T05:32:01.846Z,42.53
2022-08-26T05:33:05.250Z,43.28
2022-08-26T05:34:08.583Z,43.54
2022-08-26T05:35:11.005Z,43.49
2022-08-26T05:36:16.225Z,43.44
2022-08-26T05:37:18.111Z,43.74
2022-08-26T05:38:21.763Z,43.61
2022-08-26T05:39:23.603Z,43.36
2022-08-26T05:40:25.710Z,42.99
2022-08-26T05:41:36.637Z,42.84
2022-08-26T05:42:40.420Z,42.66
2022-08-26T05:43:42.217Z,42.75
2022-08-26T05:44:53.790Z,41.80
2022-08-26T05:46:06.637Z,42.49
2022-08-26T05:47:08.495Z,42.53
2022-08-26T05:48:10.861Z,42.35
2022-08-26T05:49:15.919Z,42.42
2022-08-26T05:50:21.977Z,42.50
2022-08-26T05:51:26.358Z,41.85
2022-08-26T05:52:28.406Z,42.04
2022-08-26T05:53:30.158Z,42.00
2022-08-26T05:54:34.055Z,41.79
2022-08-26T05:55:47.031Z,41.81
2022-08-26T05:56:49.314Z,41.24
2022-08-26T05:57:51.049Z,41.35
2022-08-26T05:58:53.239Z,41.55
2022-08-26T05:59:54.990Z,41.60
2022-08-26T06:01:00.003Z,41.86
2022-08-26T06:02:02.388Z,41.04
2022-08-26T06:03:04.712Z,41.17
2022-08-26T06:04:08.049Z,41.47
2022-08-26T06:05:09.826Z,41.58
2022-08-26T06:06:14.573Z,41.91
2022-08-26T06:07:17.074Z,42.19
2022-08-26T06:08:21.332Z,41.69
2022-08-26T06:09:23.735Z,41.01
2022-08-26T06:10:32.533Z,41.77
2022-08-26T06:11:34.998Z,40.66
2022-08-26T06:12:37.571Z,40.22
2022-08-26T06:13:39.533Z,40.92
2022-08-26T06:14:41.660Z,40.22
2022-08-26T06:15:46.056Z,40.37
2022-08-26T06:16:48.017Z,40.93
2022-08-26T06:17:49.889Z,40.94
2022-08-26T06:18:53.250Z,41.03
2022-08-26T06:19:54.953Z,40.63
2022-08-26T06:20:57.943Z,40.15
2022-08-26T06:22:23.307Z,40.77
2022-08-26T06:23:46.264Z,40.92
2022-08-26T06:25:06.498Z,41.25
2022-08-26T06:26:11.008Z,41.30
2022-08-26T06:27:15.241Z,41.62
2022-08-26T06:28:17.636Z,41.39
2022-08-26T06:29:24.710Z,41.01
2022-08-26T06:30:26.773Z,40.38
2022-08-26T06:31:29.849Z,40.37
2022-08-26T06:32:31.794Z,40.13
2022-08-26T06:33:33.934Z,39.33
2022-08-26T06:34:36.103Z,40.00
2022-08-26T06:35:39.943Z,40.84
2022-08-26T06:36:45.031Z,39.71
2022-08-26T06:37:48.000Z,39.20
2022-08-26T06:38:50.742Z,39.21
2022-08-26T06:39:52.531Z,39.54
2022-08-26T06:40:55.546Z,39.42
2022-08-26T06:41:57.290Z,39.86
2022-08-26T06:42:58.995Z,38.99
2022-08-26T06:44:03.074Z,38.74
2022-08-26T06:45:05.852Z,39.93
2022-08-26T06:46:11.866Z,40.27
2022-08-26T06:47:13.751Z,39.62
2022-08-26T06:48:18.038Z,39.10
2022-08-26T06:49:26.827Z,39.61
2022-08-26T06:50:29.358Z,40.19
2022-08-26T06:51:34.581Z,39.66
2022-08-26T06:52:36.464Z,39.93
2022-08-26T06:53:39.428Z,39.45
2022-08-26T06:54:44.222Z,39.67
2022-08-26T06:55:47.381Z,39.86
2022-08-26T06:56:53.953Z,39.95
2022-08-26T06:57:56.996Z,40.49
2022-08-26T06:58:58.913Z,39.81
2022-08-26T07:00:00.785Z,39.45
2022-08-26T07:01:11.421Z,40.04
2022-08-26T07:02:13.771Z,39.51
2022-08-26T07:03:15.676Z,39.26
2022-08-26T07:04:21.931Z,39.68
2022-08-26T07:05:25.803Z,40.58
2022-08-26T07:06:28.442Z,40.03
2022-08-26T07:07:30.728Z,40.21
2022-08-26T07:08:32.738Z,39.96
2022-08-26T07:09:37.494Z,40.00
2022-08-26T07:10:39.368Z,40.59
2022-08-26T07:11:41.601Z,40.08
2022-08-26T07:12:43.425Z,38.65
2022-08-26T07:13:50.583Z,38.44
2022-08-26T07:14:53.795Z,38.76
2022-08-26T07:15:58.128Z,39.72
2022-08-26T07:17:11.089Z,38.55
2022-08-26T07:18:17.257Z,38.90
2022-08-26T07:19:30.146Z,38.50
2022-08-26T07:20:33.055Z,38.51
2022-08-26T07:21:35.014Z,38.98
2022-08-26T07:22:37.750Z,37.76
2022-08-26T07:23:40.760Z,37.57
2022-08-26T07:24:42.668Z,37.44
2022-08-26T07:25:45.681Z,38.33
2022-08-26T07:26:48.055Z,37.25
2022-08-26T07:27:54.172Z,37.03
2022-08-26T07:28:57.862Z,37.31
2022-08-26T07:30:02.127Z,39.06
2022-08-26T07:31:12.407Z,38.90
2022-08-26T07:32:16.184Z,36.95
2022-08-26T07:33:18.271Z,37.00
2022-08-26T07:34:20.429Z,35.93
2022-08-26T07:35:22.332Z,36.10
2022-08-26T07:36:25.077Z,36.13
2022-08-26T07:37:26.803Z,35.58
2022-08-26T07:38:33.983Z,35.45
2022-08-26T07:39:36.329Z,35.31
2022-08-26T07:40:41.127Z,34.81
2022-08-26T07:41:43.197Z,35.56
2022-08-26T07:42:44.984Z,35.70
2022-08-26T07:43:47.375Z,36.13
2022-08-26T07:44:49.299Z,36.15
2022-08-26T07:45:51.061Z,36.95
2022-08-26T07:46:53.554Z,35.81
2022-08-26T07:47:56.183Z,35.57
2022-08-26T07:48:58.925Z,35.32
2022-08-26T07:50:00.743Z,36.32
2022-08-26T07:51:03.618Z,34.83
2022-08-26T07:52:06.331Z,35.24
2022-08-26T07:53:08.155Z,34.30
2022-08-26T07:54:12.464Z,34.77
2022-08-26T07:55:14.853Z,35.05
2022-08-26T07:56:17.733Z,35.14
2022-08-26T07:57:19.487Z,35.33
2022-08-26T07:58:22.664Z,35.82
2022-08-26T07:59:25.068Z,36.53
2022-08-26T08:00:28.052Z,35.68
2022-08-26T08:01:31.590Z,35.10
2022-08-26T08:02:35.017Z,35.16
2022-08-26T08:03:36.882Z,34.91
2022-08-26T08:04:38.668Z,35.03
2022-08-26T08:05:41.445Z,36.49
2022-08-26T08:06:44.683Z,35.46
2022-08-26T08:07:46.695Z,34.99
2022-08-26T08:08:51.760Z,34.30
2022-08-26T08:09:53.582Z,34.62
2022-08-26T08:10:56.416Z,36.34
2022-08-26T08:11:58.123Z,35.27
2022-08-26T08:13:00.425Z,34.86
2022-08-26T08:14:02.881Z,35.10
2022-08-26T08:15:13.624Z,35.91
2022-08-26T08:16:15.488Z,36.52
2022-08-26T08:17:17.196Z,35.06
2022-08-26T08:18:21.046Z,35.48
2022-08-26T08:19:28.414Z,34.88
2022-08-26T08:20:38.720Z,34.61
2022-08-26T08:21:47.100Z,35.41
2022-08-26T08:22:50.682Z,33.90
2022-08-26T08:23:55.495Z,33.93
2022-08-26T08:24:57.261Z,32.67
2022-08-26T08:26:10.466Z,32.74
2022-08-26T08:27:12.546Z,33.39
2022-08-26T08:28:15.941Z,33.89
2022-08-26T08:29:17.657Z,34.03
2022-08-26T08:30:22.766Z,33.83
2022-08-26T08:31:57.090Z,32.69
2022-08-26T08:32:52.875Z,33.59
2022-08-26T08:33:55.287Z,33.48
2022-08-26T08:34:57.665Z,32.91
2022-08-26T08:36:00.488Z,32.58
2022-08-26T08:37:02.603Z,32.93
2022-08-26T08:38:05.410Z,33.42
2022-08-26T08:39:08.905Z,32.96
2022-08-26T08:40:18.402Z,32.30
2022-08-26T08:42:06.106Z,32.08
2022-08-26T08:43:16.495Z,32.60
2022-08-26T08:44:31.230Z,31.80
2022-08-26T08:45:57.878Z,32.44
2022-08-26T08:47:06.241Z,31.93
2022-08-26T08:48:27.652Z,32.29
2022-08-26T08:49:31.931Z,31.92
2022-08-26T08:50:41.844Z,31.76
2022-08-26T08:51:54.871Z,31.51
2022-08-26T08:53:23.268Z,32.53
2022-08-26T08:54:26.947Z,32.31
2022-08-26T08:55:41.185Z,32.85
2022-08-26T08:56:59.724Z,32.75
2022-08-26T08:58:12.198Z,31.64
2022-08-26T08:59:28.096Z,33.78
2022-08-26T09:00:42.666Z,32.82
2022-08-26T09:02:08.987Z,31.99
2022-08-26T09:03:21.854Z,32.40
2022-08-26T09:04:44.980Z,33.21
2022-08-26T09:05:51.491Z,32.78
2022-08-26T09:06:59.110Z,32.80
2022-08-26T09:08:06.814Z,33.12
2022-08-26T09:09:30.418Z,33.01
2022-08-26T09:10:34.711Z,32.18
2022-08-26T09:11:36.941Z,31.48
2022-08-26T09:12:38.742Z,31.58
2022-08-26T09:13:48.261Z,31.77
2022-08-26T09:14:52.563Z,32.11
2022-08-26T09:16:08.451Z,31.70
2022-08-26T09:17:27.398Z,31.85
2022-08-26T09:18:41.919Z,31.69
2022-08-26T09:20:03.367Z,32.29
2022-08-26T09:21:08.213Z,32.28
2022-08-26T09:22:10.062Z,32.64
2022-08-26T09:23:11.993Z,30.80
2022-08-26T09:24:13.792Z,31.87
2022-08-26T09:25:16.174Z,32.05
2022-08-26T09:26:29.255Z,32.09
2022-08-26T09:27:42.875Z,32.32
2022-08-26T09:28:55.539Z,32.56
2022-08-26T09:29:59.539Z,32.96
2022-08-26T09:31:14.172Z,32.27
2022-08-26T09:32:35.352Z,33.35
2022-08-26T09:33:37.219Z,33.29
2022-08-26T09:34:57.446Z,33.43
2022-08-26T09:36:18.323Z,34.51
2022-08-26T09:37:43.262Z,34.55
2022-08-26T09:38:46.174Z,34.59
2022-08-26T09:39:47.943Z,33.77
2022-08-26T09:41:26.756Z,32.60
2022-08-26T09:42:28.456Z,32.33
2022-08-26T09:43:30.507Z,32.48
2022-08-26T09:44:33.386Z,32.76
2022-08-26T09:45:40.594Z,32.39
2022-08-26T09:47:05.452Z,32.53
2022-08-26T09:48:08.959Z,30.97
2022-08-26T09:49:36.096Z,31.83
2022-08-26T09:50:55.108Z,32.15
2022-08-26T09:52:23.699Z,32.15
2022-08-26T09:53:30.874Z,29.61
2022-08-26T09:54:33.564Z,29.33
2022-08-26T09:55:36.469Z,31.41
2022-08-26T09:56:39.376Z,31.40
2022-08-26T09:57:55.674Z,31.40
2022-08-26T09:59:01.120Z,31.89
2022-08-26T10:00:24.365Z,30.35
2022-08-26T10:01:38.428Z,30.10
2022-08-26T10:02:47.702Z,30.73
2022-08-26T10:03:51.984Z,32.12
2022-08-26T10:04:56.910Z,30.82
2022-08-26T10:06:00.504Z,31.16
2022-08-26T10:07:05.849Z,32.37
2022-08-26T10:08:25.146Z,31.67
2022-08-26T10:09:29.812Z,31.97
2022-08-26T10:10:35.604Z,30.91
2022-08-26T10:11:43.246Z,31.01
2022-08-26T10:12:54.003Z,30.74
2022-08-26T10:14:01.690Z,30.78
2022-08-26T10:15:09.690Z,30.63
2022-08-26T10:16:19.065Z,30.74
2022-08-26T10:17:39.084Z,31.67
2022-08-26T10:18:46.531Z,33.34
2022-08-26T10:20:23.371Z,33.05
2022-08-26T10:21:37.672Z,32.93
2022-08-26T10:23:04.105Z,31.74
2022-08-26T10:24:11.377Z,32.52
2022-08-26T10:25:23.288Z,32.89
2022-08-26T10:26:45.235Z,33.97
2022-08-26T10:28:12.152Z,33.50
2022-08-26T10:29:17.959Z,32.02
2022-08-26T10:30:23.842Z,33.12
2022-08-26T10:31:40.152Z,29.94
2022-08-26T10:32:46.949Z,29.80
2022-08-26T10:33:48.778Z,28.54
2022-08-26T10:34:51.581Z,27.57
2022-08-26T10:35:57.777Z,28.75
2022-08-26T10:37:13.895Z,29.04
2022-08-26T10:38:21.938Z,28.68
2022-08-26T10:39:23.647Z,29.49
2022-08-26T10:40:37.735Z,28.19
2022-08-26T10:41:43.496Z,28.24
2022-08-26T10:42:56.848Z,30.81
2022-08-26T10:44:01.655Z,30.57
2022-08-26T10:45:11.841Z,29.98
2022-08-26T10:46:22.556Z,30.53
2022-08-26T10:47:38.336Z,30.40
2022-08-26T10:49:00.776Z,28.73
2022-08-26T10:50:05.866Z,30.07
2022-08-26T10:51:11.580Z,31.52
2022-08-26T10:52:22.335Z,31.18
2022-08-26T10:53:32.980Z,29.84
2022-08-26T10:54:46.432Z,28.20
2022-08-26T10:56:00.503Z,28.06
2022-08-26T10:57:50.561Z,29.31
2022-08-26T10:58:58.248Z,28.60
2022-08-26T11:00:29.832Z,28.70
2022-08-26T11:01:44.340Z,26.88
2022-08-26T11:02:52.187Z,26.52
2022-08-26T11:04:00.515Z,26.35
2022-08-26T11:05:15.956Z,27.46
2022-08-26T11:06:18.885Z,26.90
2022-08-26T11:07:44.442Z,26.58
2022-08-26T11:09:08.721Z,25.52
2022-08-26T11:10:16.650Z,26.27
2022-08-26T11:11:39.716Z,27.00
2022-08-26T11:12:41.958Z,26.43
2022-08-26T11:14:05.478Z,27.03
2022-08-26T11:15:14.809Z,27.17
2022-08-26T11:16:43.593Z,27.82
2022-08-26T11:17:45.741Z,27.34
2022-08-26T11:18:48.884Z,27.07
2022-08-26T11:20:02.261Z,27.24
2022-08-26T11:21:44.523Z,26.41
2022-08-26T11:22:47.836Z,26.11
2022-08-26T11:23:50.476Z,26.57
2022-08-26T11:24:52.568Z,26.27
2022-08-26T11:26:09.796Z,26.09
2022-08-26T11:27:35.489Z,25.27
2022-08-26T11:28:49.277Z,26.62
2022-08-26T11:30:10.854Z,27.57
2022-08-26T11:31:38.431Z,26.48
2022-08-26T11:32:40.505Z,26.33
2022-08-26T11:33:48.476Z,26.65
2022-08-26T11:35:00.585Z,25.84
2022-08-26T11:36:12.386Z,26.98
2022-08-26T11:37:17.815Z,25.11
2022-08-26T11:38:31.508Z,24.75
2022-08-26T11:39:57.190Z,25.62
2022-08-26T11:41:20.987Z,27.77
2022-08-26T11:42:32.118Z,27.75
2022-08-26T11:43:34.150Z,26.13
2022-08-26T11:44:40.084Z,28.24
2022-08-26T11:46:06.901Z,27.05
2022-08-26T11:47:14.892Z,25.29
2022-08-26T11:48:18.405Z,25.65
2022-08-26T11:49:20.223Z,27.14
2022-08-26T11:50:26.527Z,26.58
2022-08-26T11:51:28.524Z,25.72
2022-08-26T11:52:30.738Z,27.13
2022-08-26T11:53:39.701Z,25.59
2022-08-26T11:54:58.898Z,28.58
2022-08-26T11:56:06.860Z,27.00
2022-08-26T11:57:13.625Z,27.99
2022-08-26T11:58:16.128Z,26.10
2022-08-26T11:59:24.144Z,25.39
2022-08-26T12:00:34.482Z,25.92
2022-08-26T12:01:40.047Z,27.75
2022-08-26T12:02:42.473Z,25.13
2022-08-26T12:03:44.431Z,25.42
2022-08-26T12:04:49.632Z,26.07
2022-08-26T12:05:53.327Z,25.59
2022-08-26T12:06:57.510Z,26.00
2022-08-26T12:08:11.925Z,26.46
2022-08-26T12:09:29.187Z,24.72
2022-08-26T12:10:34.192Z,26.07
2022-08-26T12:11:38.644Z,28.23
2022-08-26T12:12:42.619Z,27.44
2022-08-26T12:13:57.796Z,26.94
2022-08-26T12:15:22.057Z,25.54
2022-08-26T12:16:26.630Z,26.33
2022-08-26T12:17:28.558Z,27.30
2022-08-26T12:18:37.173Z,26.49
2022-08-26T12:19:39.161Z,28.46
2022-08-26T12:20:56.429Z,29.68
2022-08-26T12:22:04.495Z,26.85
2022-08-26T12:23:06.535Z,26.79
2022-08-26T12:24:08.556Z,27.04
2022-08-26T12:25:12.548Z,25.93
2022-08-26T12:26:29.989Z,26.49
2022-08-26T12:27:42.076Z,29.60
2022-08-26T12:29:12.587Z,27.61
2022-08-26T12:30:28.434Z,26.43
2022-08-26T12:31:37.786Z,27.13
2022-08-26T12:32:57.697Z,27.34
2022-08-26T12:34:02.650Z,29.80
2022-08-26T12:36:18.159Z,26.04
2022-08-26T12:37:21.207Z,26.47
2022-08-26T12:38:24.523Z,26.40
2022-08-26T12:39:36.390Z,25.72
2022-08-26T12:40:44.833Z,25.52
2022-08-26T12:42:01.928Z,27.98
2022-08-26T12:43:06.134Z,28.20
2022-08-26T12:44:08.402Z,27.08
2022-08-26T12:45:10.398Z,28.40
2022-08-26T12:46:16.754Z,27.24
2022-08-26T12:47:42.574Z,28.92
2022-08-26T12:48:49.754Z,27.32
2022-08-26T12:50:08.941Z,28.78
2022-08-26T12:51:27.207Z,27.36
2022-08-26T12:52:31.740Z,26.85
2022-08-26T12:53:35.966Z,25.40
2022-08-26T12:54:57.130Z,26.81
2022-08-26T12:56:05.464Z,27.08
2022-08-26T12:57:12.180Z,25.85
2022-08-26T12:58:24.048Z,26.81
2022-08-26T12:59:26.850Z,26.68
2022-08-26T13:00:34.869Z,27.07
2022-08-26T13:01:43.130Z,26.02
2022-08-26T13:02:45.097Z,25.29
2022-08-26T13:03:47.570Z,26.44
2022-08-26T13:05:00.685Z,27.46
2022-08-26T13:06:30.161Z,26.01
2022-08-26T13:07:31.983Z,25.50
2022-08-26T13:08:33.969Z,24.37
2022-08-26T13:09:36.640Z,26.54
2022-08-26T13:10:41.557Z,26.26
2022-08-26T13:11:45.151Z,26.88
2022-08-26T13:12:47.843Z,27.38
2022-08-26T13:14:01.783Z,26.11
2022-08-26T13:15:05.486Z,26.07
2022-08-26T13:16:07.766Z,27.22
2022-08-26T13:17:09.707Z,29.50
2022-08-26T13:18:11.653Z,27.82
2022-08-26T13:19:16.954Z,27.02
2022-08-26T13:20:18.806Z,27.72
2022-08-26T13:21:32.033Z,27.62
2022-08-26T13:22:42.473Z,28.80
2022-08-26T13:23:44.822Z,28.26
2022-08-26T13:24:46.633Z,27.03
2022-08-26T13:25:48.524Z,27.93
2022-08-26T13:26:50.810Z,24.46
2022-08-26T13:27:52.714Z,24.30
2022-08-26T13:29:01.760Z,24.92
2022-08-26T13:30:04.754Z,24.77
2022-08-26T13:31:07.137Z,26.53
2022-08-26T13:32:09.617Z,26.91
2022-08-26T13:33:14.651Z,28.21
2022-08-26T13:34:19.690Z,25.84
2022-08-26T13:35:21.504Z,25.75
2022-08-26T13:36:23.293Z,25.04
2022-08-26T13:37:35.008Z,25.19
2022-08-26T13:38:37.547Z,26.74
2022-08-26T13:39:39.656Z,26.16
2022-08-26T13:40:44.762Z,25.35
2022-08-26T13:41:47.247Z,26.52
2022-08-26T13:42:50.085Z,25.76
2022-08-26T13:43:52.826Z,27.33
2022-08-26T13:44:58.255Z,28.62
2022-08-26T13:46:01.700Z,26.64
2022-08-26T13:47:03.582Z,27.81
2022-08-26T13:48:07.027Z,27.25
2022-08-26T13:49:09.413Z,26.71
2022-08-26T13:50:11.300Z,26.92
2022-08-26T13:51:13.930Z,28.35
2022-08-26T13:52:16.726Z,26.65
2022-08-26T13:53:19.008Z,25.95
2022-08-26T13:54:20.798Z,27.17
2022-08-26T13:55:23.127Z,26.68
2022-08-26T13:56:27.644Z,25.67
2022-08-26T13:57:30.574Z,26.19
2022-08-26T13:58:32.385Z,28.58
2022-08-26T13:59:34.265Z,26.64
2022-08-26T14:00:37.590Z,24.89
2022-08-26T14:01:40.258Z,26.13
2022-08-26T14:02:42.086Z,27.61
2022-08-26T14:03:44.043Z,26.51
2022-08-26T14:04:45.946Z,25.04
2022-08-26T14:05:47.923Z,26.74
2022-08-26T14:06:52.105Z,26.11
2022-08-26T14:07:54.958Z,28.61
2022-08-26T14:08:57.008Z,25.89
2022-08-26T14:09:58.901Z,26.48
2022-08-26T14:11:00.760Z,26.27
2022-08-26T14:12:02.937Z,25.57
2022-08-26T14:13:04.924Z,26.74
2022-08-26T14:14:09.686Z,25.92
2022-08-26T14:15:13.086Z,26.55